Time;durP1;ratioP1;P1;durP2;ratioP2;P2;SDS_P1;SDS_P2;PMS_P1;PMS_P2;Temp;Humidity;BMP_temperature;BMP_pressure;BME280_temperature;BME280_humidity;BME280_pressure;Samples;Min_cycle;Max_cycle;Signal;HPM_P1;HPM_P2
2023/03/14 00:01:23;;;;;;;9.77;2.38;;;;;;;15.55;53.33;98901.59;4884123;28;124744;-71
2023/03/14 00:03:50;;;;;;;11.20;2.65;;;;;;;15.53;53.49;98900.91;4884102;28;124760;-72
2023/03/14 00:06:18;;;;;;;7.65;2.25;;;;;;;15.51;53.66;98902.88;4881826;28;115528;-72
2023/03/14 00:08:46;;;;;;;10.25;2.63;;;;;;;15.47;53.89;98890.84;4882207;28;114886;-72
2023/03/14 00:11:18;;;;;;;6.80;2.00;;;;;;;15.41;54.15;98896.75;4880597;28;121912;-71
2023/03/14 00:13:49;;;;;;;6.82;2.15;;;;;;;15.33;54.27;98874.34;4881261;28;124859;-71
2023/03/14 00:16:17;;;;;;;7.63;2.00;;;;;;;15.28;54.33;98876.59;4879285;28;114319;-71
2023/03/14 00:18:44;;;;;;;8.80;2.45;;;;;;;15.23;54.43;98870.88;4879662;28;113719;-71
2023/03/14 00:21:11;;;;;;;4.60;1.63;;;;;;;15.20;54.62;98868.53;4875716;28;123788;-71
2023/03/14 00:23:40;;;;;;;8.25;1.90;;;;;;;15.16;54.74;98867.09;4888852;28;123424;-71
2023/03/14 00:26:12;;;;;;;8.18;1.98;;;;;;;15.13;54.76;98878.09;4885615;28;116833;-71
2023/03/14 00:28:41;;;;;;;5.88;1.83;;;;;;;15.12;54.88;98881.72;4883747;28;114077;-72
2023/03/14 00:31:11;;;;;;;6.43;2.08;;;;;;;15.10;54.95;98883.69;4863957;28;123866;-71
2023/03/14 00:33:41;;;;;;;4.68;1.63;;;;;;;15.08;55.02;98885.69;4877721;28;123933;-71
2023/03/14 00:36:11;;;;;;;8.30;2.15;;;;;;;15.06;54.96;98903.66;4877668;28;113537;-71
2023/03/14 00:38:40;;;;;;;9.02;2.05;;;;;;;15.04;54.90;98900.28;4879475;28;114011;-71
2023/03/14 00:41:10;;;;;;;7.40;1.90;;;;;;;15.02;54.94;98891.59;4881665;28;124475;-72
2023/03/14 00:43:37;;;;;;;7.30;1.92;;;;;;;14.97;55.09;98895.56;4879526;28;123537;-71
2023/03/14 00:46:05;;;;;;;8.07;2.00;;;;;;;14.95;55.04;98902.00;4881415;28;114617;-71
2023/03/14 00:48:32;;;;;;;9.02;2.20;;;;;;;14.92;55.08;98887.13;4878319;28;113779;-71
2023/03/14 00:51:01;;;;;;;5.28;1.95;;;;;;;14.90;55.02;98899.78;4881282;28;123180;-71
2023/03/14 00:53:28;;;;;;;5.32;1.90;;;;;;;14.87;55.02;98908.03;4881968;28;124449;-71
2023/03/14 00:55:55;;;;;;;8.68;1.65;;;;;;;14.82;54.70;98902.31;4890152;28;115445;-71
2023/03/14 00:58:23;;;;;;;8.48;1.50;;;;;;;14.78;54.64;98900.91;4877646;28;114881;-71
2023/03/14 01:00:50;;;;;;;5.70;1.38;;;;;;;14.73;54.21;98903.16;4874228;28;123047;-71
2023/03/14 01:03:17;;;;;;;5.30;1.30;;;;;;;14.67;54.08;98914.41;4877689;28;123236;-71
2023/03/14 01:05:44;;;;;;;2.88;0.98;;;;;;;14.63;54.03;98916.50;4876658;28;114818;-71
2023/03/14 01:08:11;;;;;;;6.63;1.52;;;;;;;14.59;53.94;98918.63;4874918;28;114231;-71
2023/03/14 01:10:40;;;;;;;7.65;1.30;;;;;;;14.57;53.90;98920.59;4875092;28;123138;-71
2023/03/14 01:13:08;;;;;;;5.60;1.40;;;;;;;14.55;53.78;98911.88;4878908;28;123322;-71
2023/03/14 01:15:37;;;;;;;6.40;1.30;;;;;;;14.54;53.66;98904.88;4879200;28;113924;-71
2023/03/14 01:18:04;;;;;;;4.47;1.15;;;;;;;14.53;53.65;98903.19;4881649;28;113893;-71
2023/03/14 01:20:31;;;;;;;7.25;1.08;;;;;;;14.51;53.63;98913.13;4873601;28;124908;-72
2023/03/14 01:22:58;;;;;;;5.25;1.50;;;;;;;14.51;53.46;98910.47;4885240;28;123301;-71
2023/03/14 01:25:26;;;;;;;7.03;1.52;;;;;;;14.53;53.55;98908.50;4876674;28;114263;-71
2023/03/14 01:27:53;;;;;;;4.15;1.30;;;;;;;14.53;53.51;98908.50;4875998;28;112372;-71
2023/03/14 01:30:21;;;;;;;4.63;1.27;;;;;;;14.54;53.29;98904.88;4873366;28;123106;-71
2023/03/14 01:32:48;;;;;;;11.43;1.48;;;;;;;14.55;53.30;98901.22;4881485;28;123927;-71
2023/03/14 01:35:16;;;;;;;6.75;1.60;;;;;;;14.54;53.15;98899.53;4879012;28;114351;-71
2023/03/14 01:37:43;;;;;;;5.60;1.15;;;;;;;14.54;53.11;98894.22;4882768;28;113152;-70
2023/03/14 01:40:16;;;;;;;4.75;1.27;;;;;;;14.55;53.00;98895.03;4881166;28;123850;-71
2023/03/14 01:42:46;;;;;;;5.97;1.40;;;;;;;14.56;52.93;98881.59;4880207;28;123569;-71
2023/03/14 01:45:50;;;;;;;11.05;1.30;;;;;;;14.55;53.07;98887.88;4883164;28;116362;-71
2023/03/14 01:48:18;;;;;;;7.90;1.38;;;;;;;14.55;52.95;98873.72;4877749;28;114873;-71
2023/03/14 01:50:45;;;;;;;6.70;1.52;;;;;;;14.54;52.92;98875.56;4877254;28;123290;-71
2023/03/14 01:53:13;;;;;;;4.35;1.20;;;;;;;14.54;52.83;98870.25;4877428;28;123591;-71
2023/03/14 01:55:40;;;;;;;6.18;1.30;;;;;;;14.55;52.85;98869.25;4862895;28;113700;-71
2023/03/14 01:58:08;;;;;;;6.63;1.45;;;;;;;14.53;52.79;98863.22;4877117;28;113987;-71
2023/03/14 02:00:36;;;;;;;6.35;1.40;;;;;;;14.54;52.71;98851.59;4886274;28;122490;-71
2023/03/14 02:03:09;;;;;;;3.60;1.00;;;;;;;14.53;52.81;98846.41;4867222;28;122929;-71
2023/03/14 02:05:40;;;;;;;6.30;1.23;;;;;;;14.54;52.80;98856.91;4876241;28;114561;-71
2023/03/14 02:08:16;;;;;;;5.72;1.30;;;;;;;14.53;52.60;98852.56;4880325;28;113097;-71
2023/03/14 02:11:04;;;;;;;5.53;1.48;;;;;;;14.52;52.68;98853.56;4879898;28;124266;-71
2023/03/14 02:14:04;;;;;;;4.43;1.50;;;;;;;14.51;52.75;98856.38;4836254;28;124428;-70
2023/03/14 02:16:54;;;;;;;5.95;1.35;;;;;;;14.50;52.63;98858.16;4872733;28;114654;-71
2023/03/14 02:20:26;;;;;;;3.40;1.05;;;;;;;14.47;52.74;98853.13;4882893;28;114143;-71
2023/03/14 02:22:55;;;;;;;5.00;1.33;;;;;;;14.46;52.77;98848.78;4885308;28;123754;-71
2023/03/14 02:25:47;;;;;;;6.95;1.33;;;;;;;14.46;52.82;98858.59;4873722;28;123386;-71
2023/03/14 02:28:14;;;;;;;4.45;1.50;;;;;;;14.45;52.67;98852.44;4893164;28;113878;-71
2023/03/14 02:30:43;;;;;;;4.55;1.35;;;;;;;14.46;52.83;98863.94;4881215;28;114527;-70
2023/03/14 02:33:14;;;;;;;7.13;1.40;;;;;;;14.45;52.87;98852.44;4878361;28;124733;-71
2023/03/14 02:35:52;;;;;;;6.88;1.48;;;;;;;14.47;52.80;98855.81;4875584;28;122895;-71
2023/03/14 02:38:30;;;;;;;6.78;1.80;;;;;;;14.48;52.72;98857.47;4877824;28;115131;-71
2023/03/14 02:40:59;;;;;;;8.00;1.30;;;;;;;14.50;52.74;98860.81;4876150;28;115434;-71
2023/03/14 02:43:27;;;;;;;9.40;1.73;;;;;;;14.50;52.69;98857.34;4875866;28;123080;-71
2023/03/14 02:46:01;;;;;;;8.80;1.90;;;;;;;14.50;52.95;98850.16;4879123;28;124000;-70
2023/03/14 02:49:03;;;;;;;4.88;1.60;;;;;;;14.50;52.75;98860.81;4874083;28;115401;-70
2023/03/14 02:51:32;;;;;;;7.35;1.60;;;;;;;14.51;52.91;98851.88;4878624;28;113294;-70
2023/03/14 02:53:59;;;;;;;7.32;1.60;;;;;;;14.52;52.91;98842.91;4872048;28;123439;-70
2023/03/14 02:56:26;;;;;;;4.47;1.42;;;;;;;14.53;52.88;98841.06;4877562;28;124176;-70
2023/03/14 02:58:54;;;;;;;5.82;1.60;;;;;;;14.54;52.75;98840.94;4881344;28;113736;-70
2023/03/14 03:01:31;;;;;;;5.35;1.25;;;;;;;14.54;52.67;98834.75;4885456;28;113206;-70
2023/03/14 03:03:58;;;;;;;6.65;1.38;;;;;;;14.55;52.74;98847.09;4877394;28;124590;-70
2023/03/14 03:06:26;;;;;;;5.28;1.27;;;;;;;14.53;52.81;98844.56;4864838;28;123433;-71
2023/03/14 03:08:53;;;;;;;6.00;1.52;;;;;;;14.54;52.94;98840.94;4882149;28;114123;-70
2023/03/14 03:11:20;;;;;;;7.50;1.65;;;;;;;14.53;52.80;98844.56;4879619;28;113861;-70
2023/03/14 03:13:47;;;;;;;7.07;1.50;;;;;;;14.52;52.97;98842.91;4880879;28;123168;-70
2023/03/14 03:16:15;;;;;;;9.20;1.75;;;;;;;14.52;53.13;98848.22;4877922;28;123440;-70
2023/03/14 03:18:42;;;;;;;7.10;1.58;;;;;;;14.51;53.04;98846.53;4875950;28;113435;-70
2023/03/14 03:21:09;;;;;;;9.70;1.88;;;;;;;14.50;53.33;98847.50;4875823;28;113779;-70
2023/03/14 03:23:36;;;;;;;9.60;1.88;;;;;;;14.48;53.18;98846.81;4878047;28;124577;-70
2023/03/14 03:26:05;;;;;;;6.95;1.75;;;;;;;14.45;53.18;98841.78;4880637;28;122905;-70
2023/03/14 03:28:33;;;;;;;7.57;1.77;;;;;;;14.43;53.40;98835.78;4873602;28;115102;-70
2023/03/14 03:31:07;;;;;;;8.90;1.40;;;;;;;14.42;53.54;98831.41;4879251;28;115485;-70
2023/03/14 03:33:36;;;;;;;8.30;1.70;;;;;;;14.42;53.35;98836.75;4882619;28;124159;-70
2023/03/14 03:36:04;;;;;;;7.00;1.63;;;;;;;14.40;53.47;98828.06;4881699;28;123539;-71
2023/03/14 03:38:35;;;;;;;7.40;1.67;;;;;;;14.40;53.47;98833.38;4875795;28;114271;-70
2023/03/14 03:41:06;;;;;;;5.63;1.50;;;;;;;14.39;53.65;98831.69;4883011;28;113420;-70
2023/03/14 03:43:34;;;;;;;8.43;1.70;;;;;;;14.40;53.81;98838.72;4881118;28;124326;-70
2023/03/14 03:46:04;;;;;;;6.22;1.70;;;;;;;14.41;53.74;98840.41;4883952;28;123223;-70
2023/03/14 03:48:32;;;;;;;8.40;2.00;;;;;;;14.41;53.80;98835.91;4877670;28;113432;-71
2023/03/14 03:51:02;;;;;;;9.18;1.75;;;;;;;14.40;53.70;98833.38;4882055;28;113488;-70
2023/03/14 03:53:30;;;;;;;8.07;1.63;;;;;;;14.39;53.72;98831.69;4885062;28;128000;-70
2023/03/14 03:56:03;;;;;;;7.82;1.70;;;;;;;14.38;53.81;98827.38;4877588;28;125348;-71
2023/03/14 03:58:30;;;;;;;7.05;1.60;;;;;;;14.38;53.77;98833.53;4878346;28;112684;-70
2023/03/14 04:00:57;;;;;;;5.55;1.63;;;;;;;14.37;53.83;98823.00;4884114;28;113967;-71
2023/03/14 04:03:25;;;;;;;10.55;1.77;;;;;;;14.34;53.89;98824.16;4882455;28;123360;-70
2023/03/14 04:06:04;;;;;;;8.77;1.60;;;;;;;14.34;53.86;98823.31;4865236;28;124753;-70
2023/03/14 04:08:33;;;;;;;8.98;1.80;;;;;;;14.31;53.89;98823.59;4865946;28;113429;-70
2023/03/14 04:11:02;;;;;;;6.28;1.85;;;;;;;14.30;53.77;98816.59;4883590;28;113731;-70
2023/03/14 04:13:44;;;;;;;8.40;1.70;;;;;;;14.29;53.85;98815.72;4876446;28;123534;-69
2023/03/14 04:16:18;;;;;;;7.50;1.65;;;;;;;14.28;53.78;98807.88;4882835;28;123603;-70
2023/03/14 04:18:45;;;;;;;7.32;1.70;;;;;;;14.28;53.80;98806.09;4880786;28;114459;-70
2023/03/14 04:21:13;;;;;;;6.63;1.60;;;;;;;14.27;53.87;98800.91;4879801;28;114773;-71
2023/03/14 04:23:49;;;;;;;5.50;1.45;;;;;;;14.26;54.00;98812.50;4878222;28;123983;-70
2023/03/14 04:26:18;;;;;;;7.70;1.33;;;;;;;14.24;53.89;98818.00;4883258;28;123738;-71
2023/03/14 04:28:45;;;;;;;5.18;1.50;;;;;;;14.23;53.81;98818.16;4881082;28;114044;-70
2023/03/14 04:31:18;;;;;;;5.50;1.45;;;;;;;14.20;53.90;98817.44;4838483;28;1142796;-70
2023/03/14 04:33:46;;;;;;;8.00;1.65;;;;;;;14.18;53.87;98814.09;4879447;28;124074;-71
2023/03/14 04:36:16;;;;;;;4.25;1.30;;;;;;;14.16;53.87;98810.69;4880200;28;122911;-71
2023/03/14 04:38:43;;;;;;;4.82;1.50;;;;;;;14.15;53.83;98809.03;4880106;28;114487;-71
2023/03/14 04:41:11;;;;;;;4.78;1.33;;;;;;;14.14;53.91;98802.03;4879485;28;113380;-70
2023/03/14 04:43:39;;;;;;;5.43;1.50;;;;;;;14.12;53.71;98797.84;4874086;28;123158;-70
2023/03/14 04:46:08;;;;;;;6.18;1.17;;;;;;;14.10;53.80;98795.31;4881610;28;123064;-71
2023/03/14 04:48:35;;;;;;;7.93;1.50;;;;;;;14.05;53.88;98792.22;4881435;28;113814;-71
2023/03/14 04:51:03;;;;;;;6.38;1.33;;;;;;;14.01;53.80;98788.16;4882061;28;113803;-70
2023/03/14 04:53:33;;;;;;;6.75;1.48;;;;;;;13.98;53.86;98785.81;4877091;28;124878;-70
2023/03/14 04:56:04;;;;;;;3.97;1.00;;;;;;;13.95;53.96;98791.41;4880454;28;123637;-70
2023/03/14 04:58:36;;;;;;;4.25;1.35;;;;;;;13.92;54.15;98792.53;4884384;28;114106;-70
2023/03/14 05:01:05;;;;;;;5.22;1.33;;;;;;;13.91;54.18;98784.69;4878350;28;113550;-70
2023/03/14 05:03:39;;;;;;;4.23;1.63;;;;;;;13.90;54.14;98790.97;4871779;28;123652;-70
2023/03/14 05:06:09;;;;;;;4.32;1.40;;;;;;;13.88;54.34;98785.81;4881869;28;124856;-70
2023/03/14 05:08:45;;;;;;;3.97;1.30;;;;;;;13.83;54.46;98783.56;4883623;28;115796;-72
2023/03/14 05:11:14;;;;;;;5.65;1.40;;;;;;;13.82;54.58;98792.56;4882417;28;115399;-71
2023/03/14 05:14:20;;;;;;;3.45;1.20;;;;;;;13.78;54.68;98785.81;4878763;28;125123;-72
2023/03/14 05:16:56;;;;;;;3.58;1.30;;;;;;;13.76;54.75;98784.28;4886081;28;124617;-71
2023/03/14 05:19:47;;;;;;;3.50;1.38;;;;;;;13.73;54.87;98792.53;4882022;28;112728;-71
2023/03/14 05:22:26;;;;;;;3.90;1.48;;;;;;;13.70;55.36;98788.34;4888948;28;114145;-72
2023/03/14 05:25:12;;;;;;;4.13;1.58;;;;;;;13.65;55.49;98790.56;4879973;28;121356;-71
2023/03/14 05:28:02;;;;;;;3.80;1.40;;;;;;;13.63;55.65;98787.22;4867113;28;122896;-72
2023/03/14 05:30:57;;;;;;;3.58;1.50;;;;;;;13.60;55.87;98787.50;4867194;28;112771;-72
2023/03/14 05:33:43;;;;;;;2.95;1.35;;;;;;;13.58;55.92;98789.44;4882294;28;115114;-72
2023/03/14 05:36:17;;;;;;;4.38;1.67;;;;;;;13.56;56.30;98786.94;4883262;28;124302;-71
2023/03/14 05:39:01;;;;;;;4.60;1.45;;;;;;;13.54;56.38;98788.91;4877579;28;123947;-71
2023/03/14 05:41:39;;;;;;;4.28;1.50;;;;;;;13.52;56.36;98792.66;4863936;28;114282;-71
2023/03/14 05:44:29;;;;;;;3.50;1.67;;;;;;;13.49;56.46;98795.63;4878059;28;114363;-72
2023/03/14 05:47:07;;;;;;;3.35;1.48;;;;;;;13.46;56.76;98790.56;4881350;28;123712;-71
2023/03/14 05:49:34;;;;;;;2.95;1.67;;;;;;;13.44;56.56;98783.53;4881856;28;125008;-71
2023/03/14 05:52:22;;;;;;;5.35;1.90;;;;;;;13.43;56.68;98791.69;4878518;28;114773;-71
2023/03/14 05:55:21;;;;;;;4.78;1.85;;;;;;;13.40;56.78;98787.47;4844760;28;114301;-71
2023/03/14 05:58:08;;;;;;;5.38;1.80;;;;;;;13.40;56.70;98787.47;4868608;28;124057;-71
2023/03/14 06:00:54;;;;;;;3.10;1.70;;;;;;;13.37;56.76;98777.13;4882119;28;124677;-71
2023/03/14 06:03:39;;;;;;;6.13;2.20;;;;;;;13.35;56.82;98779.06;4872353;28;114858;-71
2023/03/14 06:06:07;;;;;;;4.60;2.00;;;;;;;13.34;57.05;98777.38;4882337;28;113615;-71
2023/03/14 06:08:34;;;;;;;5.43;1.98;;;;;;;13.34;57.12;98766.75;4886249;28;123427;-71
2023/03/14 06:11:03;;;;;;;3.90;1.80;;;;;;;13.35;57.29;98763.09;4880292;28;123389;-72
2023/03/14 06:13:31;;;;;;;6.57;2.22;;;;;;;13.37;57.30;98761.16;4881483;28;114237;-72
2023/03/14 06:15:58;;;;;;;3.80;2.28;;;;;;;13.37;57.56;98761.16;4881823;28;113441;-71
2023/03/14 06:18:25;;;;;;;3.40;2.08;;;;;;;13.37;57.35;98758.50;4881415;28;126049;-71
2023/03/14 06:20:55;;;;;;;6.10;2.20;;;;;;;13.39;57.41;98755.69;4878786;28;123548;-71
2023/03/14 06:23:25;;;;;;;4.45;1.90;;;;;;;13.41;57.58;98762.56;4884139;28;113867;-71
2023/03/14 06:25:54;;;;;;;4.00;2.08;;;;;;;13.41;57.46;98759.91;4886881;28;112904;-71
2023/03/14 06:28:23;;;;;;;5.95;2.03;;;;;;;13.44;57.76;98772.91;4883455;28;123504;-71
2023/03/14 06:30:53;;;;;;;4.50;1.75;;;;;;;13.45;57.65;98768.44;4876384;28;124698;-71
2023/03/14 06:33:20;;;;;;;6.63;2.10;;;;;;;13.46;57.66;98770.13;4880037;28;114644;-71
2023/03/14 06:35:47;;;;;;;4.43;2.15;;;;;;;13.46;57.81;98769.28;4882411;28;113269;-71
2023/03/14 06:38:14;;;;;;;4.43;2.10;;;;;;;13.48;57.88;98777.97;4883201;28;123324;-72
2023/03/14 06:40:42;;;;;;;5.70;2.08;;;;;;;13.50;58.00;98776.00;4866968;28;123043;-72
2023/03/14 06:43:16;;;;;;;4.93;2.20;;;;;;;13.51;57.84;98777.69;4881742;28;113808;-71
2023/03/14 06:45:46;;;;;;;3.72;2.25;;;;;;;13.52;57.97;98769.56;4885111;28;113523;-71
2023/03/14 06:48:13;;;;;;;5.93;2.15;;;;;;;13.55;58.08;98768.44;4880861;28;126142;-72
2023/03/14 06:50:48;;;;;;;4.40;2.00;;;;;;;13.57;58.07;98777.13;4883067;28;122952;-72
2023/03/14 06:53:15;;;;;;;4.15;2.00;;;;;;;13.58;58.05;98779.66;4875609;28;114950;-71
2023/03/14 06:55:43;;;;;;;4.50;2.10;;;;;;;13.59;58.19;98775.16;4882486;28;114123;-71
2023/03/14 06:58:11;;;;;;;3.80;2.03;;;;;;;13.62;58.17;98785.53;4882718;28;123621;-71
2023/03/14 07:00:42;;;;;;;2.83;1.90;;;;;;;13.64;58.16;98778.25;4880517;28;123898;-71
2023/03/14 07:03:13;;;;;;;2.83;1.70;;;;;;;13.65;58.43;98777.25;4880467;28;112828;-72
2023/03/14 07:05:43;;;;;;;2.65;1.70;;;;;;;13.68;58.41;98790.28;4882522;28;113729;-73
2023/03/14 07:08:10;;;;;;;4.07;1.80;;;;;;;13.69;58.42;98799.94;4876939;28;123008;-73
2023/03/14 07:10:38;;;;;;;4.68;1.90;;;;;;;13.72;58.59;98794.34;4876149;28;123435;-72
2023/03/14 07:13:07;;;;;;;4.47;1.70;;;;;;;13.76;58.48;98793.09;4883311;28;113796;-73
2023/03/14 07:15:42;;;;;;;3.47;1.65;;;;;;;13.80;58.51;98799.81;4879318;28;113240;-73
2023/03/14 07:18:10;;;;;;;2.70;1.50;;;;;;;13.83;58.46;98798.69;4881581;28;123193;-72
2023/03/14 07:20:37;;;;;;;2.42;1.63;;;;;;;13.86;58.58;98801.06;4875795;28;123611;-73
2023/03/14 07:23:05;;;;;;;3.25;1.70;;;;;;;13.91;58.66;98798.00;4860245;28;113572;-72
2023/03/14 07:25:39;;;;;;;3.70;1.40;;;;;;;13.95;58.61;98810.88;4877505;28;114065;-73
2023/03/14 07:28:08;;;;;;;3.63;1.60;;;;;;;13.98;58.66;98817.75;4877060;28;124253;-72
2023/03/14 07:30:37;;;;;;;4.05;2.28;;;;;;;14.03;58.57;98815.47;4876655;28;123043;-72
2023/03/14 07:33:11;;;;;;;5.53;1.77;;;;;;;14.03;58.62;98815.47;4888329;28;113824;-73
2023/03/14 07:35:38;;;;;;;3.72;1.98;;;;;;;14.04;58.53;98816.34;4876103;28;113600;-72
2023/03/14 07:38:05;;;;;;;5.60;2.05;;;;;;;14.04;58.66;98817.19;4879669;28;123470;-72
2023/03/14 07:40:38;;;;;;;3.88;1.77;;;;;;;14.03;58.55;98826.13;4879669;28;123443;-73
2023/03/14 07:43:06;;;;;;;4.43;1.83;;;;;;;14.02;58.90;98824.47;4879039;28;114564;-73
2023/03/14 07:45:41;;;;;;;5.18;2.00;;;;;;;14.01;58.67;98865.34;4878326;28;114039;-72
2023/03/14 07:48:09;;;;;;;2.38;1.10;;;;;;;13.98;58.38;98902.91;4881985;28;124490;-73
2023/03/14 07:50:36;;;;;;;1.70;0.80;;;;;;;13.90;57.88;98916.06;4878741;28;123113;-73
2023/03/14 07:53:03;;;;;;;1.95;0.73;;;;;;;13.70;57.43;98926.66;4876511;28;114946;-73
2023/03/14 07:55:31;;;;;;;2.50;0.70;;;;;;;13.49;57.13;98933.91;4884704;28;113646;-74
2023/03/14 07:57:58;;;;;;;0.82;0.60;;;;;;;13.28;57.30;98953.38;4889665;28;124588;-73
2023/03/14 08:00:25;;;;;;;1.00;0.50;;;;;;;13.12;57.29;98958.31;4878129;28;124782;-73
2023/03/14 08:02:52;;;;;;;1.50;0.50;;;;;;;12.98;57.35;98973.63;4878838;28;114406;-73
2023/03/14 08:05:19;;;;;;;0.73;0.57;;;;;;;12.85;57.53;98978.31;4878983;28;114412;-73
2023/03/14 08:07:46;;;;;;;1.38;0.63;;;;;;;12.73;57.59;98989.97;4877178;28;124081;-73
2023/03/14 08:10:20;;;;;;;0.88;0.60;;;;;;;12.60;57.58;98998.97;4878953;28;123863;-73
2023/03/14 08:12:49;;;;;;;1.23;0.70;;;;;;;12.49;57.82;99008.78;4885994;28;113904;-73
2023/03/14 08:15:16;;;;;;;1.98;0.90;;;;;;;12.39;57.75;99003.38;4868231;28;112393;-73
2023/03/14 08:17:43;;;;;;;0.70;0.50;;;;;;;12.29;58.06;99007.78;4889593;28;123991;-74
2023/03/14 08:20:12;;;;;;;0.80;0.60;;;;;;;12.21;58.16;99022.50;4886539;28;123800;-73
2023/03/14 08:22:39;;;;;;;2.08;0.70;;;;;;;12.13;57.96;99030.25;4883256;28;114307;-73
2023/03/14 08:25:06;;;;;;;1.20;0.93;;;;;;;12.06;58.08;99034.38;4888791;28;113722;-74
2023/03/14 08:27:34;;;;;;;2.42;0.80;;;;;;;12.03;58.11;99039.91;4874910;28;124438;-73
2023/03/14 08:30:01;;;;;;;1.30;0.80;;;;;;;11.99;58.36;99059.69;4874058;28;124806;-73
2023/03/14 08:32:28;;;;;;;1.10;0.80;;;;;;;11.95;58.25;99063.56;4893366;28;116402;-73
2023/03/14 08:34:56;;;;;;;2.03;1.10;;;;;;;11.94;58.39;99072.47;4893523;28;115087;-73
2023/03/14 08:37:24;;;;;;;1.83;1.02;;;;;;;11.91;58.35;99083.34;4893518;28;124101;-73
2023/03/14 08:39:53;;;;;;;1.90;1.23;;;;;;;11.91;58.63;99088.66;4873463;28;124249;-73
2023/03/14 08:42:20;;;;;;;2.00;1.50;;;;;;;11.91;58.75;99093.97;4893601;28;114019;-74
2023/03/14 08:44:47;;;;;;;4.20;1.75;;;;;;;11.91;58.58;99093.97;4890460;28;114718;-73
2023/03/14 08:47:14;;;;;;;2.20;1.70;;;;;;;11.90;58.80;99110.81;4892195;28;124255;-73
2023/03/14 08:49:42;;;;;;;2.67;1.70;;;;;;;11.90;58.94;99134.69;4887663;28;123815;-73
2023/03/14 08:52:09;;;;;;;4.25;1.75;;;;;;;11.93;58.94;99129.16;4886141;28;113994;-73
2023/03/14 08:54:36;;;;;;;3.20;1.80;;;;;;;11.95;59.03;99143.16;4879862;28;113687;-73
2023/03/14 08:57:03;;;;;;;2.75;1.65;;;;;;;11.98;59.13;99137.59;4885533;28;124159;-73
2023/03/14 08:59:31;;;;;;;2.30;1.60;;;;;;;12.02;59.10;99149.66;4879650;28;123637;-73
2023/03/14 09:01:58;;;;;;;2.15;1.25;;;;;;;12.03;59.07;99156.66;4886498;28;113860;-73
2023/03/14 09:04:25;;;;;;;2.35;1.17;;;;;;;12.04;59.22;99155.69;4890481;28;114231;-73
2023/03/14 09:06:52;;;;;;;4.35;1.27;;;;;;;12.05;59.04;99170.63;4877447;28;123805;-73
2023/03/14 09:09:19;;;;;;;2.45;1.40;;;;;;;12.05;58.97;99186.56;4879691;28;123855;-73
2023/03/14 09:11:46;;;;;;;3.38;1.20;;;;;;;12.02;58.70;99192.97;4884196;28;114575;-73
2023/03/14 09:14:13;;;;;;;3.88;0.93;;;;;;;12.00;58.72;99199.38;4884292;28;113987;-73
2023/03/14 09:16:40;;;;;;;2.28;1.20;;;;;;;11.99;58.65;99208.28;4889859;28;124343;-73
2023/03/14 09:19:08;;;;;;;3.88;1.10;;;;;;;11.96;58.72;99229.72;4884184;28;124290;-73
2023/03/14 09:21:35;;;;;;;1.92;0.80;;;;;;;11.91;58.50;99247.81;4892488;28;114922;-73
2023/03/14 09:24:02;;;;;;;1.70;0.60;;;;;;;11.83;58.33;99259.81;4892644;28;114777;-73
2023/03/14 09:26:29;;;;;;;1.38;0.70;;;;;;;11.70;58.02;99280.28;4892035;28;124104;-73
2023/03/14 09:28:57;;;;;;;3.33;0.70;;;;;;;11.54;57.89;99298.28;4888565;28;124536;-73
2023/03/14 09:31:24;;;;;;;2.80;0.80;;;;;;;11.37;57.58;99312.78;4887818;28;113448;-73
2023/03/14 09:33:51;;;;;;;2.58;0.50;;;;;;;11.23;57.75;99321.75;4874865;28;114284;-73
2023/03/14 09:36:18;;;;;;;1.15;0.77;;;;;;;11.13;57.96;99336.59;4875554;28;123840;-73
2023/03/14 09:38:46;;;;;;;2.35;0.73;;;;;;;11.01;58.04;99338.31;4887809;28;123668;-73
2023/03/14 09:41:23;;;;;;;3.50;1.00;;;;;;;10.94;58.01;99359.09;4870706;28;114534;-74
2023/03/14 09:44:05;;;;;;;1.10;0.63;;;;;;;10.88;58.31;99375.41;4872769;28;114085;-73
2023/03/14 09:46:36;;;;;;;2.15;0.60;;;;;;;10.83;58.38;99383.69;4884601;28;123995;-74
2023/03/14 09:49:11;;;;;;;2.78;0.68;;;;;;;10.80;58.42;99388.34;4876165;28;123507;-72
2023/03/14 09:51:39;;;;;;;2.85;0.70;;;;;;;10.78;58.22;99400.88;4878516;28;114562;-73
2023/03/14 09:54:23;;;;;;;2.10;0.52;;;;;;;10.74;58.04;99415.25;4876392;28;113830;-73
2023/03/14 09:56:51;;;;;;;2.47;0.70;;;;;;;10.71;58.58;99417.16;4875809;28;123290;-73
2023/03/14 09:59:19;;;;;;;1.70;0.80;;;;;;;10.75;58.40;99432.84;4883967;28;124207;-73
2023/03/14 10:01:46;;;;;;;0.80;0.43;;;;;;;10.83;58.67;99430.50;4888710;28;113979;-73
2023/03/14 10:04:18;;;;;;;2.40;0.60;;;;;;;10.91;58.54;99449.38;4881991;28;114296;-73
2023/03/14 10:06:47;;;;;;;2.47;1.23;;;;;;;10.98;58.71;99455.97;4882856;28;124572;-73
2023/03/14 10:09:25;;;;;;;1.42;0.70;;;;;;;11.04;58.22;99476.72;4876150;28;124393;-74
2023/03/14 10:11:59;;;;;;;1.00;0.65;;;;;;;11.10;58.28;99492.19;4879754;28;113893;-73
2023/03/14 10:14:37;;;;;;;3.42;0.80;;;;;;;11.14;57.83;99497.28;4878365;28;115039;-73
2023/03/14 10:17:13;;;;;;;1.15;0.60;;;;;;;11.15;57.89;99514.88;4874395;28;123693;-73
2023/03/14 10:19:59;;;;;;;3.50;0.70;;;;;;;11.13;57.52;99532.66;4879513;28;123357;-73
2023/03/14 10:22:30;;;;;;;4.30;0.70;;;;;;;11.09;57.65;99538.19;4879258;28;115960;-73
2023/03/14 10:25:03;;;;;;;1.95;0.88;;;;;;;11.08;57.38;99546.25;4879818;28;114168;-73
2023/03/14 10:27:33;;;;;;;2.35;0.73;;;;;;;11.04;57.00;99569.44;4889125;28;123631;-72
2023/03/14 10:30:04;;;;;;;5.15;0.90;;;;;;;11.01;57.20;99572.28;4886719;28;123736;-73
2023/03/14 10:32:37;;;;;;;3.15;0.88;;;;;;;10.99;56.93;99584.81;4892250;28;114446;-73
2023/03/14 10:35:20;;;;;;;4.13;0.82;;;;;;;10.96;56.80;99606.19;4887807;28;113147;-73
2023/03/14 10:38:02;;;;;;;3.22;0.70;;;;;;;10.95;56.90;99609.81;4889202;28;124099;-73
2023/03/14 10:40:51;;;;;;;4.53;0.70;;;;;;;10.95;56.64;99627.50;4883954;28;123340;-73
2023/03/14 10:43:26;;;;;;;7.30;1.10;;;;;;;10.96;56.84;99632.69;4878296;28;113955;-73
2023/03/14 10:45:57;;;;;;;8.63;1.52;;;;;;;11.01;56.59;99635.03;4890097;28;115998;-72
2023/03/14 10:48:37;;;;;;;8.10;1.15;;;;;;;11.03;56.56;99655.16;4887920;28;124134;-72
2023/03/14 10:51:25;;;;;;;5.30;1.20;;;;;;;11.08;56.21;99663.69;4890947;28;123833;-72
2023/03/14 10:53:56;;;;;;;5.50;0.90;;;;;;;11.10;56.24;99667.06;4889973;28;116091;-73
2023/03/14 10:56:26;;;;;;;4.70;1.00;;;;;;;11.15;56.31;99663.25;4892304;28;114411;-72
2023/03/14 10:58:57;;;;;;;6.07;1.13;;;;;;;11.21;56.12;99689.38;4891795;28;123461;-72
2023/03/14 11:01:50;;;;;;;4.68;1.10;;;;;;;11.32;56.13;99696.59;4890541;28;124022;-72
2023/03/14 11:04:23;;;;;;;4.47;1.00;;;;;;;11.42;55.97;99709.16;4863655;28;115123;-72
2023/03/14 11:07:12;;;;;;;6.13;1.38;;;;;;;11.48;55.91;99714.03;4890081;28;116282;-72
2023/03/14 11:09:51;;;;;;;8.25;1.25;;;;;;;11.53;55.63;99720.81;4889156;28;123454;-72
2023/03/14 11:12:38;;;;;;;5.55;1.00;;;;;;;11.58;55.56;99726.66;4889559;28;123843;-72
2023/03/14 11:15:16;;;;;;;7.35;1.20;;;;;;;11.60;55.45;99738.03;4880575;28;114431;-72
2023/03/14 11:18:18;;;;;;;8.45;1.55;;;;;;;11.63;55.48;99743.97;4884345;28;112831;-72
2023/03/14 11:20:55;;;;;;;7.93;1.17;;;;;;;11.68;55.27;99754.28;4865844;28;124550;-72
2023/03/14 11:23:53;;;;;;;8.13;1.23;;;;;;;11.73;55.40;99762.75;4894275;28;125623;-72
2023/03/14 11:26:53;;;;;;;4.20;1.33;;;;;;;11.80;55.35;99789.75;4891311;28;114062;-73
2023/03/14 11:29:23;;;;;;;9.13;1.50;;;;;;;11.75;54.62;99821.88;4865133;28;114231;-73
2023/03/14 11:31:58;;;;;;;14.20;1.83;;;;;;;11.55;53.97;99825.00;4888005;28;124264;-73
2023/03/14 11:34:33;;;;;;;8.38;1.35;;;;;;;11.28;54.00;99844.38;4886234;28;124623;-73
2023/03/14 11:37:10;;;;;;;9.45;1.65;;;;;;;11.04;54.23;99841.53;4879269;28;114499;-73
2023/03/14 11:39:40;;;;;;;13.55;1.73;;;;;;;10.85;54.51;99841.78;4879182;28;113821;-73
2023/03/14 11:42:14;;;;;;;9.75;1.30;;;;;;;10.74;54.60;99854.84;4882269;28;124079;-73
2023/03/14 11:44:46;;;;;;;12.00;1.95;;;;;;;10.65;54.79;99862.41;4881741;28;123572;-73
2023/03/14 11:47:28;;;;;;;11.70;1.65;;;;;;;10.61;55.29;99871.50;4884282;28;114446;-73